Time;durP1;ratioP1;P1;durP2;ratioP2;P2;SDS_P1;SDS_P2;PMS_P1;PMS_P2;Temp;Humidity;BMP_temperature;BMP_pressure;BME280_temperature;BME280_humidity;BME280_pressure;Samples;Min_cycle;Max_cycle;Signal;HPM_P1;HPM_P2
2022/05/21 00:00:22;;;;;;;12.63;5.20;;;13.20;99.90;;;;;;5037844;28;20040;-72
2022/05/21 00:02:49;;;;;;;13.52;5.13;;;13.00;99.90;;;;;;5055624;28;20103;-72
2022/05/21 00:05:16;;;;;;;13.70;6.45;;;13.00;99.90;;;;;;5055400;28;20056;-72
2022/05/21 00:07:43;;;;;;;11.73;5.75;;;13.00;99.90;;;;;;5055154;28;20048;-72
2022/05/21 00:10:09;;;;;;;15.88;6.25;;;13.10;99.90;;;;;;5037686;28;20084;-72
2022/05/21 00:12:36;;;;;;;15.15;6.05;;;13.20;99.90;;;;;;5055030;28;20540;-72
2022/05/21 00:15:02;;;;;;;14.82;5.50;;;13.20;99.90;;;;;;5037586;28;20072;-72
2022/05/21 00:17:28;;;;;;;15.23;6.25;;;13.10;99.90;;;;;;5055356;28;20045;-72
2022/05/21 00:19:53;;;;;;;13.38;5.50;;;13.10;99.90;;;;;;5054830;28;20429;-72
2022/05/21 00:22:19;;;;;;;15.68;6.50;;;13.20;99.90;;;;;;5055215;28;20041;-72
2022/05/21 00:24:44;;;;;;;15.02;5.50;;;13.20;99.90;;;;;;5054833;28;20394;-72
2022/05/21 00:27:11;;;;;;;12.00;5.45;;;13.10;99.90;;;;;;5054965;28;20072;-73
2022/05/21 00:29:37;;;;;;;13.60;6.38;;;13.20;99.90;;;;;;5037030;28;20455;-72
2022/05/21 00:32:03;;;;;;;12.05;5.85;;;13.30;99.90;;;;;;5037494;28;20065;-72
2022/05/21 00:34:30;;;;;;;14.70;6.47;;;13.40;99.90;;;;;;5055233;28;20102;-72
2022/05/21 00:36:56;;;;;;;9.88;5.32;;;13.50;99.90;;;;;;5054705;28;20053;-72
2022/05/21 00:39:21;;;;;;;18.23;7.00;;;13.50;99.90;;;;;;5054894;28;20049;-72
2022/05/21 00:41:47;;;;;;;21.05;8.63;;;13.50;99.90;;;;;;5054624;28;20059;-72
2022/05/21 00:44:13;;;;;;;18.52;8.52;;;13.40;99.90;;;;;;5054709;28;20044;-71
2022/05/21 00:46:41;;;;;;;21.73;9.15;;;13.30;99.90;;;;;;5054586;28;20049;-72
2022/05/21 00:49:24;;;;;;;29.70;12.30;;;13.30;99.90;;;;;;5053997;28;20071;-72
2022/05/21 00:51:52;;;;;;;20.05;9.52;;;13.30;99.90;;;;;;5054833;28;20053;-72
2022/05/21 00:54:22;;;;;;;23.48;11.40;;;13.30;99.90;;;;;;5054464;28;20045;-72
2022/05/21 00:56:53;;;;;;;21.02;11.57;;;13.40;99.90;;;;;;5054544;28;20048;-72
2022/05/21 01:02:07;;;;;;;22.17;11.00;;;13.30;99.90;;;;;;5036901;28;20401;-72
2022/05/21 01:04:34;;;;;;;37.65;15.13;;;13.30;99.90;;;;;;5036100;28;20049;-72
2022/05/21 01:07:01;;;;;;;19.67;12.10;;;13.30;99.90;;;;;;5053808;28;20440;-72
2022/05/21 01:09:27;;;;;;;26.50;13.98;;;13.30;99.90;;;;;;5054340;28;20063;-72
2022/05/21 01:11:55;;;;;;;28.08;12.48;;;13.40;99.90;;;;;;5054064;28;20084;-72
2022/05/21 01:14:21;;;;;;;39.15;16.85;;;13.50;99.90;;;;;;5054139;28;20106;-72
2022/05/21 01:16:51;;;;;;;21.70;12.50;;;13.60;99.90;;;;;;5053896;28;20378;-72
2022/05/21 01:19:17;;;;;;;24.60;13.63;;;13.50;99.90;;;;;;5053659;28;20041;-72
2022/05/21 01:21:43;;;;;;;24.15;13.80;;;13.50;99.90;;;;;;5053692;28;20444;-72
2022/05/21 01:24:10;;;;;;;27.17;14.18;;;13.60;99.90;;;;;;5036414;28;20083;-72
2022/05/21 01:26:38;;;;;;;25.30;14.48;;;13.50;99.90;;;;;;5036502;28;20135;-72
2022/05/21 01:29:09;;;;;;;26.15;13.55;;;13.40;99.90;;;;;;5053753;28;20065;-72
2022/05/21 01:31:36;;;;;;;25.63;14.43;;;13.30;99.90;;;;;;5053840;28;20127;-72
2022/05/21 01:34:02;;;;;;;29.95;15.63;;;13.20;99.90;;;;;;5053759;28;20061;-72
2022/05/21 01:36:27;;;;;;;30.95;14.60;;;13.10;99.90;;;;;;5036293;28;20174;-72
2022/05/21 01:38:53;;;;;;;25.77;15.45;;;13.10;99.90;;;;;;5036264;28;20053;-72
2022/05/21 01:41:19;;;;;;;30.25;15.25;;;13.00;99.90;;;;;;5053729;28;20452;-72
2022/05/21 01:46:29;;;;;;;29.48;16.83;;;12.80;99.90;;;;;;5053586;28;20063;-72
2022/05/21 01:48:56;;;;;;;34.67;17.38;;;12.90;99.90;;;;;;5053017;28;20048;-72
2022/05/21 01:51:21;;;;;;;40.53;20.08;;;13.00;99.90;;;;;;5053422;28;20057;-72
2022/05/21 01:53:47;;;;;;;28.77;17.50;;;13.10;99.90;;;;;;5035827;28;20371;-72
2022/05/21 01:56:14;;;;;;;31.85;18.17;;;13.00;99.90;;;;;;5053504;28;20049;-72
2022/05/21 01:58:41;;;;;;;26.67;19.23;;;13.00;99.90;;;;;;5053561;28;20049;-73
2022/05/21 02:01:08;;;;;;;39.58;22.58;;;13.10;99.90;;;;;;5053186;28;20044;-72
2022/05/21 02:03:34;;;;;;;32.35;19.20;;;13.20;99.90;;;;;;5035913;28;20393;-72
2022/05/21 02:06:00;;;;;;;31.67;19.58;;;13.40;99.90;;;;;;5035530;28;20052;-72
2022/05/21 02:08:26;;;;;;;51.65;26.52;;;13.40;99.90;;;;;;5053344;28;20071;-72
2022/05/21 02:10:52;;;;;;;54.47;26.27;;;13.40;99.90;;;;;;5053383;28;20048;-72
2022/05/21 02:13:24;;;;;;;44.03;24.35;;;13.50;99.90;;;;;;5053061;28;20049;-72
2022/05/21 02:15:50;;;;;;;60.08;27.83;;;13.50;99.90;;;;;;5053296;28;20048;-72
2022/05/21 02:18:17;;;;;;;41.55;22.73;;;13.60;99.90;;;;;;5059575;28;20397;-72
2022/05/21 02:20:42;;;;;;;33.70;22.42;;;13.50;99.90;;;;;;5059418;28;20084;-72
2022/05/21 02:23:10;;;;;;;75.18;33.33;;;13.50;99.90;;;;;;5059804;28;20103;-73
2022/05/21 02:25:35;;;;;;;46.58;26.50;;;13.70;99.90;;;;;;5059751;28;20040;-72
2022/05/21 02:28:01;;;;;;;51.97;28.65;;;13.60;99.90;;;;;;5059376;28;20056;-72
2022/05/21 02:30:27;;;;;;;72.30;35.50;;;13.70;99.90;;;;;;5025920;28;20087;-72
2022/05/21 02:32:53;;;;;;;58.65;30.70;;;13.80;99.90;;;;;;5042036;28;20051;-72
2022/05/21 02:35:18;;;;;;;56.22;31.67;;;13.70;99.90;;;;;;5042117;28;20404;-72
2022/05/21 02:40:28;;;;;;;66.80;32.10;;;13.70;99.90;;;;;;5059375;28;20107;-72
2022/05/21 02:42:55;;;;;;;70.72;35.95;;;13.70;99.90;;;;;;5042170;28;20493;-72
2022/05/21 02:45:28;;;;;;;56.45;30.65;;;13.60;99.90;;;;;;5041874;28;20063;-72
2022/05/21 02:47:54;;;;;;;56.20;31.42;;;13.70;99.90;;;;;;5059580;28;20397;-72
2022/05/21 02:50:30;;;;;;;76.88;35.47;;;13.80;99.90;;;;;;5041685;28;20140;-72
2022/05/21 02:52:56;;;;;;;73.40;36.70;;;13.90;99.90;;;;;;5059504;28;20088;-72
2022/05/21 02:55:22;;;;;;;67.60;34.95;;;13.90;99.90;;;;;;5041660;28;20080;-72
2022/05/21 02:57:48;;;;;;;82.10;34.95;;;13.90;99.90;;;;;;5041962;28;20110;-72
2022/05/21 03:00:18;;;;;;;74.32;32.95;;;14.00;99.90;;;;;;5059591;28;20055;-71
2022/05/21 03:02:43;;;;;;;79.20;36.97;;;14.00;99.90;;;;;;5059271;28;20059;-72
2022/05/21 03:05:09;;;;;;;74.78;35.08;;;14.00;99.90;;;;;;5059469;28;20044;-72
2022/05/21 03:07:41;;;;;;;69.68;32.08;;;14.00;99.90;;;;;;5059259;28;20064;-72
2022/05/21 03:10:20;;;;;;;55.05;25.73;;;14.00;99.90;;;;;;5060063;28;20064;-72
2022/05/21 03:12:54;;;;;;;63.97;29.90;;;14.00;99.90;;;;;;5059442;28;20052;-72
2022/05/21 03:15:39;;;;;;;52.00;26.98;;;14.10;99.90;;;;;;5059273;28;20049;-72
2022/05/21 03:18:07;;;;;;;69.60;30.60;;;14.30;99.90;;;;;;5059220;28;20048;-72
2022/05/21 03:20:33;;;;;;;54.92;27.92;;;14.30;99.90;;;;;;5058951;28;20363;-72
2022/05/21 03:23:00;;;;;;;62.35;27.75;;;14.30;99.90;;;;;;5041940;28;20052;-72
2022/05/21 03:25:26;;;;;;;47.40;23.75;;;14.20;99.90;;;;;;5041505;28;20088;-71
2022/05/21 03:27:52;;;;;;;51.20;24.90;;;14.20;99.90;;;;;;5058105;28;20511;-72
2022/05/21 03:30:21;;;;;;;61.42;25.45;;;14.30;99.90;;;;;;5055809;28;20057;-71
2022/05/21 03:32:47;;;;;;;43.78;20.23;;;14.30;99.90;;;;;;5038004;28;20497;-72
2022/05/21 03:35:16;;;;;;;53.20;22.92;;;14.30;99.90;;;;;;5055722;28;20048;-72
2022/05/21 03:37:42;;;;;;;43.30;19.55;;;14.40;99.90;;;;;;5056011;28;20128;-72
2022/05/21 03:40:10;;;;;;;33.22;16.58;;;14.50;99.90;;;;;;5038304;28;20053;-72
2022/05/21 03:42:37;;;;;;;50.28;17.85;;;14.50;99.90;;;;;;5055917;28;20505;-72
2022/05/21 03:45:04;;;;;;;34.78;13.00;;;14.50;99.90;;;;;;5038183;28;20563;-72
2022/05/21 03:47:30;;;;;;;44.17;13.88;;;14.50;99.90;;;;;;5055587;28;20049;-71
2022/05/21 03:49:55;;;;;;;35.75;13.52;;;14.50;99.90;;;;;;5055323;28;20464;-71
2022/05/21 03:52:21;;;;;;;42.75;10.85;;;14.50;99.90;;;;;;5037849;28;20045;-71
2022/05/21 03:54:47;;;;;;;31.98;9.02;;;14.40;99.90;;;;;;5021693;28;20067;-72
2022/05/21 03:57:15;;;;;;;51.65;13.52;;;14.30;99.90;;;;;;5055653;28;20045;-72
2022/05/21 03:59:41;;;;;;;35.90;10.07;;;14.30;99.90;;;;;;5055457;28;20049;-72
2022/05/21 04:02:07;;;;;;;39.25;11.50;;;14.20;99.90;;;;;;5055661;28;20140;-72
2022/05/21 04:04:33;;;;;;;42.10;10.27;;;14.20;99.90;;;;;;5055362;28;20037;-71
2022/05/21 04:06:58;;;;;;;38.30;10.27;;;14.10;99.90;;;;;;5037872;28;20541;-72
2022/05/21 04:09:28;;;;;;;31.60;9.32;;;14.20;99.90;;;;;;5037693;28;20390;-71
2022/05/21 04:11:57;;;;;;;34.97;9.35;;;14.20;99.90;;;;;;5037821;28;20132;-71
2022/05/21 04:14:30;;;;;;;38.83;8.75;;;14.00;99.90;;;;;;5054999;28;20528;-72
2022/05/21 04:17:00;;;;;;;26.05;7.35;;;14.00;99.90;;;;;;5055498;28;20053;-72
2022/05/21 04:19:28;;;;;;;27.67;7.35;;;13.90;99.90;;;;;;5036401;28;20083;-73
2022/05/21 04:21:54;;;;;;;32.38;8.38;;;13.80;99.90;;;;;;5068314;28;20492;-73
2022/05/21 04:24:20;;;;;;;25.35;7.60;;;13.80;99.90;;;;;;5074373;28;20044;-72
2022/05/21 04:26:46;;;;;;;27.27;6.88;;;13.90;99.90;;;;;;5074671;28;20369;-72
2022/05/21 04:29:13;;;;;;;20.33;6.38;;;13.90;99.90;;;;;;5057120;28;20052;-71
2022/05/21 04:31:39;;;;;;;29.33;6.93;;;13.90;99.90;;;;;;5074687;28;20532;-72
2022/05/21 04:34:04;;;;;;;26.10;6.15;;;14.00;99.90;;;;;;5074931;28;20124;-72
2022/05/21 04:36:31;;;;;;;19.00;5.22;;;13.90;99.90;;;;;;5057318;28;20053;-72
2022/05/21 04:38:58;;;;;;;19.13;5.13;;;13.90;99.90;;;;;;5074768;28;20511;-72
2022/05/21 04:41:25;;;;;;;30.48;6.63;;;14.00;99.90;;;;;;5073694;28;20045;-72
2022/05/21 04:43:52;;;;;;;24.95;5.07;;;14.00;99.90;;;;;;5056951;28;20053;-72
2022/05/21 04:46:18;;;;;;;21.00;4.43;;;14.10;99.90;;;;;;5074723;28;20477;-71
2022/05/21 04:48:46;;;;;;;21.73;3.65;;;14.00;99.90;;;;;;5074516;28;20094;-71
2022/05/21 04:51:14;;;;;;;25.63;5.82;;;13.90;99.90;;;;;;5074272;28;20154;-71
2022/05/21 04:53:40;;;;;;;22.25;5.10;;;13.90;99.90;;;;;;5074606;28;20128;-72
2022/05/21 04:56:06;;;;;;;21.55;4.20;;;14.00;99.90;;;;;;5056652;28;20066;-72
2022/05/21 04:58:33;;;;;;;20.23;4.72;;;14.10;99.90;;;;;;5074807;28;20194;-72
2022/05/21 05:00:59;;;;;;;22.25;4.68;;;14.10;99.90;;;;;;5057114;28;20477;-72
2022/05/21 05:03:26;;;;;;;20.58;4.57;;;14.20;99.90;;;;;;5074421;28;20051;-72
2022/05/21 05:05:52;;;;;;;19.33;4.78;;;14.20;99.90;;;;;;5074064;28;20042;-71
2022/05/21 05:08:20;;;;;;;29.13;4.75;;;14.20;99.90;;;;;;5056817;28;20409;-72
2022/05/21 05:10:46;;;;;;;19.15;4.63;;;14.20;99.90;;;;;;5074494;28;20135;-72
2022/05/21 05:13:13;;;;;;;18.63;4.43;;;14.20;99.90;;;;;;5074371;28;20435;-72
2022/05/21 05:15:40;;;;;;;21.05;3.95;;;14.10;99.90;;;;;;5056560;28;20046;-72
2022/05/21 05:18:12;;;;;;;21.08;4.20;;;14.10;99.90;;;;;;5074152;28;20094;-72
2022/05/21 05:20:38;;;;;;;23.80;4.00;;;14.00;99.90;;;;;;5056297;28;20048;-71
2022/05/21 05:23:05;;;;;;;20.27;4.38;;;14.00;99.90;;;;;;5073841;28;20044;-72
2022/05/21 05:25:32;;;;;;;21.83;4.60;;;14.10;99.90;;;;;;5056152;28;20048;-72
2022/05/21 05:27:58;;;;;;;17.35;3.88;;;14.20;99.90;;;;;;5073573;28;20083;-72
2022/05/21 05:30:24;;;;;;;21.40;5.07;;;14.20;99.90;;;;;;5056316;28;20404;-72
2022/05/21 05:32:50;;;;;;;14.77;3.47;;;14.20;99.90;;;;;;5056041;28;20044;-72
2022/05/21 05:35:16;;;;;;;21.58;3.97;;;14.20;99.90;;;;;;5056017;28;20051;-72
2022/05/21 05:37:42;;;;;;;19.95;3.75;;;14.20;99.90;;;;;;5073688;28;20044;-72
2022/05/21 05:40:14;;;;;;;13.32;3.53;;;14.20;99.90;;;;;;5073783;28;20150;-72
2022/05/21 05:42:41;;;;;;;15.77;3.20;;;14.20;99.90;;;;;;5074038;28;20102;-72
2022/05/21 05:45:08;;;;;;;16.98;4.07;;;14.40;99.90;;;;;;5056030;28;20059;-72
2022/05/21 05:47:34;;;;;;;12.98;3.15;;;14.50;99.90;;;;;;5073502;28;20052;-72
2022/05/21 05:50:00;;;;;;;21.25;3.25;;;14.50;99.90;;;;;;5055142;28;20056;-72
2022/05/21 05:52:27;;;;;;;16.30;3.33;;;14.50;99.90;;;;;;5055360;28;20044;-72
2022/05/21 05:54:53;;;;;;;15.15;3.30;;;14.50;99.90;;;;;;5073314;28;20040;-72
2022/05/21 05:57:19;;;;;;;16.10;3.60;;;14.50;99.90;;;;;;5073422;28;20044;-72
2022/05/21 05:59:51;;;;;;;15.20;3.10;;;14.40;99.90;;;;;;5073516;28;20044;-72
2022/05/21 06:05:03;;;;;;;20.70;3.58;;;14.50;99.90;;;;;;5073397;28;20052;-72
2022/05/21 06:07:29;;;;;;;15.88;3.72;;;14.50;99.90;;;;;;5055607;28;20150;-72
2022/05/21 06:10:05;;;;;;;14.98;2.67;;;14.40;99.90;;;;;;5073433;28;20114;-72
2022/05/21 06:12:31;;;;;;;21.67;3.50;;;14.40;99.90;;;;;;5073187;28;20052;-72
2022/05/21 06:14:57;;;;;;;14.27;2.95;;;14.50;99.90;;;;;;5073325;28;20044;-72
2022/05/21 06:17:23;;;;;;;14.55;3.65;;;14.50;99.90;;;;;;5073388;28;20114;-72
2022/05/21 06:19:51;;;;;;;17.90;3.10;;;14.60;99.90;;;;;;5072834;28;20055;-72
2022/05/21 06:22:20;;;;;;;17.67;3.63;;;14.50;99.90;;;;;;5073578;28;20044;-71
2022/05/21 06:24:45;;;;;;;19.95;3.33;;;14.60;99.90;;;;;;5073044;28;20067;-72
2022/05/21 06:27:11;;;;;;;15.30;3.58;;;14.60;99.90;;;;;;5055484;28;20048;-72
2022/05/21 06:29:37;;;;;;;20.40;3.22;;;14.70;99.90;;;;;;5073307;28;20389;-72
2022/05/21 06:32:07;;;;;;;17.25;3.28;;;14.70;99.90;;;;;;5072895;28;20050;-72
2022/05/21 06:34:36;;;;;;;16.95;3.05;;;14.60;99.90;;;;;;5073145;28;20049;-72
2022/05/21 06:37:06;;;;;;;18.02;3.08;;;14.70;99.90;;;;;;5073310;28;20044;-72
2022/05/21 06:39:33;;;;;;;16.83;3.22;;;14.90;99.90;;;;;;5073210;28;20079;-72
2022/05/21 06:41:59;;;;;;;14.80;2.80;;;15.00;99.90;;;;;;5072845;28;20056;-71
2022/05/21 06:44:25;;;;;;;14.45;2.92;;;15.10;99.90;;;;;;5072886;28;20049;-71
2022/05/21 06:46:50;;;;;;;15.55;2.65;;;15.10;99.90;;;;;;5072894;28;20056;-72
2022/05/21 06:49:17;;;;;;;12.63;2.35;;;15.00;99.90;;;;;;5072425;28;20405;-72
2022/05/21 06:51:43;;;;;;;17.75;3.25;;;14.80;99.90;;;;;;5072968;28;20090;-72
2022/05/21 06:54:09;;;;;;;9.65;2.63;;;14.80;99.90;;;;;;5072836;28;20114;-72
2022/05/21 06:56:38;;;;;;;12.05;2.50;;;14.90;99.90;;;;;;5055181;28;20492;-71
2022/05/21 06:59:04;;;;;;;16.92;2.80;;;15.20;99.90;;;;;;5072593;28;20041;-72
2022/05/21 07:01:29;;;;;;;16.00;3.15;;;15.30;99.90;;;;;;5055018;28;20087;-72
2022/05/21 07:03:56;;;;;;;16.02;3.05;;;15.20;99.90;;;;;;5056478;28;20137;-71
2022/05/21 07:09:06;;;;;;;14.02;3.03;;;15.40;99.90;;;;;;5076400;28;20051;-72
2022/05/21 07:11:32;;;;;;;17.90;3.42;;;15.50;99.90;;;;;;5076500;28;20040;-72
2022/05/21 07:13:58;;;;;;;15.50;2.67;;;15.60;99.90;;;;;;5058456;28;20056;-72
2022/05/21 07:16:24;;;;;;;12.98;3.10;;;15.40;99.90;;;;;;5076189;28;20044;-72
2022/05/21 07:18:49;;;;;;;18.52;3.05;;;15.40;99.90;;;;;;5058751;28;20397;-72
2022/05/21 07:21:17;;;;;;;15.85;3.03;;;15.50;99.90;;;;;;5075954;28;20051;-71
2022/05/21 07:23:44;;;;;;;16.05;3.72;;;15.50;99.90;;;;;;5076180;28;20048;-72
2022/05/21 07:26:10;;;;;;;13.80;2.80;;;15.50;99.90;;;;;;5075964;28;20091;-73
2022/05/21 07:28:35;;;;;;;13.68;2.28;;;15.50;99.90;;;;;;5058346;28;20473;-72
2022/05/21 07:31:01;;;;;;;13.23;2.78;;;15.60;99.90;;;;;;5058418;28;20496;-71
2022/05/21 07:33:27;;;;;;;10.80;2.03;;;15.70;99.90;;;;;;5076092;28;20084;-72
2022/05/21 07:35:52;;;;;;;19.08;2.58;;;15.60;99.90;;;;;;5058201;28;20067;-72
2022/05/21 07:38:18;;;;;;;14.77;2.65;;;15.60;99.90;;;;;;5058014;28;20044;-72
2022/05/21 07:40:46;;;;;;;13.70;2.35;;;15.80;99.90;;;;;;5075702;28;20044;-72
2022/05/21 07:43:19;;;;;;;9.38;2.58;;;16.10;99.90;;;;;;5058211;28;20135;-71
2022/05/21 07:45:46;;;;;;;13.65;2.45;;;15.90;99.90;;;;;;5076245;28;20041;-73
2022/05/21 07:48:15;;;;;;;18.27;2.75;;;15.90;99.90;;;;;;5076001;28;20444;-70
2022/05/21 07:50:44;;;;;;;9.43;1.73;;;15.90;99.90;;;;;;5041070;28;20056;-71
2022/05/21 07:53:12;;;;;;;12.13;1.95;;;16.00;99.90;;;;;;5075792;28;20048;-71
2022/05/21 07:55:38;;;;;;;10.60;2.20;;;16.00;99.90;;;;;;5075440;28;20055;-71
2022/05/21 07:58:04;;;;;;;6.45;1.70;;;16.10;99.90;;;;;;5075677;28;20048;-71
2022/05/21 08:00:30;;;;;;;10.32;2.28;;;16.30;99.90;;;;;;5075511;28;20047;-71
2022/05/21 08:02:56;;;;;;;13.23;2.08;;;16.40;99.90;;;;;;5075666;28;20052;-71
2022/05/21 08:05:21;;;;;;;11.35;2.05;;;16.50;99.90;;;;;;5057541;28;20049;-72
2022/05/21 08:07:51;;;;;;;14.25;2.42;;;16.70;99.90;;;;;;5075506;28;20044;-71
2022/05/21 08:10:17;;;;;;;14.27;2.35;;;16.70;99.90;;;;;;5075084;28;20135;-73
2022/05/21 08:12:43;;;;;;;10.63;1.98;;;16.60;99.90;;;;;;5059849;28;20084;-73
2022/05/21 08:15:09;;;;;;;19.85;2.33;;;16.50;99.90;;;;;;5062793;28;20362;-72
2022/05/21 08:17:35;;;;;;;18.95;2.55;;;16.30;99.90;;;;;;5057855;28;20080;-72
2022/05/21 08:20:01;;;;;;;14.25;2.40;;;16.10;99.90;;;;;;5074795;28;20086;-71
2022/05/21 08:27:56;;;;;;;10.93;1.58;;;16.00;99.90;;;;;;5058175;28;20242;-91
2022/05/21 08:30:22;;;;;;;14.50;2.35;;;15.70;99.90;;;;;;5057275;28;20056;-71
2022/05/21 08:32:47;;;;;;;10.35;2.00;;;15.80;99.90;;;;;;5074805;28;20114;-71
2022/05/21 08:35:13;;;;;;;12.55;2.05;;;16.00;99.90;;;;;;5075560;28;20042;-86
2022/05/21 08:37:39;;;;;;;13.27;2.10;;;16.20;99.90;;;;;;5040414;28;20059;-77
2022/05/21 08:40:05;;;;;;;15.40;2.95;;;16.30;99.90;;;;;;5057482;28;20048;-87
2022/05/21 08:42:39;;;;;;;13.35;2.45;;;16.20;99.90;;;;;;5056763;28;20048;-76
2022/05/21 08:45:24;;;;;;;11.73;1.95;;;16.10;99.90;;;;;;5056912;28;20074;-71
2022/05/21 08:48:11;;;;;;;11.82;2.28;;;16.00;99.90;;;;;;5057010;28;20037;-76
2022/05/21 08:50:42;;;;;;;10.00;2.22;;;16.10;99.90;;;;;;5074688;28;20055;-88
2022/05/21 08:53:19;;;;;;;11.75;2.17;;;15.80;99.90;;;;;;5040836;28;20040;-78
2022/05/21 08:55:49;;;;;;;15.40;2.33;;;16.10;99.90;;;;;;5056879;28;20515;-82
2022/05/21 08:58:55;;;;;;;11.88;2.03;;;16.30;99.90;;;;;;5056349;28;20440;-73
2022/05/21 09:01:24;;;;;;;10.43;1.88;;;16.50;99.90;;;;;;5075224;28;20094;-71
2022/05/21 09:03:53;;;;;;;12.88;2.72;;;16.60;99.90;;;;;;5056556;28;20048;-70
2022/05/21 09:06:18;;;;;;;17.17;2.13;;;16.80;99.90;;;;;;5074025;28;20553;-71
2022/05/21 09:08:57;;;;;;;15.02;1.90;;;16.70;99.90;;;;;;5074445;28;20139;-91
2022/05/21 09:11:27;;;;;;;12.57;2.03;;;16.70;99.90;;;;;;5057220;28;20059;-89
2022/05/21 09:14:00;;;;;;;8.55;1.58;;;16.30;99.90;;;;;;5057605;28;20048;-91
2022/05/21 09:19:10;;;;;;;13.82;1.80;;;16.90;99.90;;;;;;5073603;28;20101;-70
2022/05/21 09:21:43;;;;;;;14.00;1.85;;;16.90;99.90;;;;;;5055981;28;20127;-70
2022/05/21 09:24:09;;;;;;;7.78;1.83;;;16.90;99.90;;;;;;5074128;28;20041;-70
2022/05/21 09:26:51;;;;;;;9.57;2.25;;;16.90;99.90;;;;;;5055209;28;20409;-70
2022/05/21 09:29:25;;;;;;;10.98;1.63;;;16.90;99.90;;;;;;5073991;28;20053;-71
2022/05/21 09:31:54;;;;;;;9.75;1.60;;;16.60;99.90;;;;;;5074011;28;20055;-67
2022/05/21 09:34:30;;;;;;;9.60;1.27;;;16.80;99.90;;;;;;5073712;28;20382;-70
2022/05/21 09:36:58;;;;;;;10.13;2.40;;;17.30;99.90;;;;;;5074025;28;20413;-70
2022/05/21 09:39:32;;;;;;;17.38;2.22;;;17.50;99.90;;;;;;5073636;28;20124;-70
2022/05/21 09:42:10;;;;;;;15.20;1.95;;;17.10;99.90;;;;;;5073461;28;20473;-70
2022/05/21 09:47:27;;;;;;;12.93;2.10;;;17.00;99.90;;;;;;5066337;28;20106;-70
2022/05/21 09:50:03;;;;;;;11.00;2.17;;;17.40;99.90;;;;;;5055495;28;20052;-70
2022/05/21 09:52:31;;;;;;;13.38;2.08;;;17.70;99.90;;;;;;5073315;28;20052;-70
2022/05/21 09:54:57;;;;;;;10.80;1.50;;;18.00;99.90;;;;;;5073574;28;20497;-70
2022/05/21 09:57:29;;;;;;;17.67;2.30;;;17.90;99.90;;;;;;5073636;28;20052;-70
2022/05/21 10:00:23;;;;;;;10.40;1.95;;;18.00;99.90;;;;;;5073322;28;20099;-70
2022/05/21 10:02:55;;;;;;;6.18;1.42;;;18.00;99.90;;;;;;5073563;28;20071;-71
2022/05/21 10:05:48;;;;;;;10.00;1.42;;;18.10;99.90;;;;;;5055580;28;20044;-71
2022/05/21 10:11:05;;;;;;;12.70;1.80;;;18.90;99.90;;;;;;5073495;28;20087;-71
2022/05/21 10:13:36;;;;;;;10.00;1.50;;;18.40;99.90;;;;;;5073550;28;20052;-70
2022/05/21 10:16:10;;;;;;;11.02;1.55;;;18.10;99.90;;;;;;5073987;28;20049;-70
2022/05/21 10:19:14;;;;;;;5.75;1.33;;;17.80;99.90;;;;;;5055865;28;20040;-69
2022/05/21 10:21:59;;;;;;;11.75;1.67;;;17.50;99.90;;;;;;5058868;28;20063;-70
2022/05/21 10:24:35;;;;;;;11.00;1.58;;;17.80;99.90;;;;;;5073537;28;20048;-68
2022/05/21 10:27:22;;;;;;;12.35;1.80;;;17.90;99.90;;;;;;5073165;28;20554;-69
2022/05/21 10:30:10;;;;;;;11.60;1.63;;;17.60;99.90;;;;;;5073114;28;20534;-71
2022/05/21 10:33:01;;;;;;;8.23;1.30;;;17.40;99.90;;;;;;5055654;28;20064;-71
2022/05/21 10:35:30;;;;;;;14.68;1.63;;;17.10;99.90;;;;;;5072959;28;20507;-71
2022/05/21 10:38:06;;;;;;;10.27;1.40;;;17.20;99.90;;;;;;5074887;28;20489;-90
2022/05/21 10:40:38;;;;;;;;;;;17.10;99.90;;;;;;5060010;28;20048;-74
2022/05/21 10:43:26;;;;;;;6.93;1.30;;;17.00;99.90;;;;;;5077397;28;19935;-71
2022/05/21 10:46:25;;;;;;;7.72;1.15;;;17.10;99.90;;;;;;5076918;28;20453;-70
2022/05/21 10:49:12;;;;;;;8.82;1.70;;;17.20;99.90;;;;;;5076975;28;20048;-71
2022/05/21 10:51:57;;;;;;;11.60;1.83;;;17.80;99.90;;;;;;5076962;28;20082;-73
2022/05/21 10:54:38;;;;;;;14.40;2.63;;;17.90;99.90;;;;;;5077715;28;20052;-72
2022/05/21 10:57:09;;;;;;;11.98;1.73;;;17.70;99.90;;;;;;5078208;28;20048;-71
2022/05/21 11:00:00;;;;;;;8.77;1.50;;;17.60;99.90;;;;;;5076702;28;20493;-70
2022/05/21 11:02:39;;;;;;;11.15;1.45;;;17.60;99.90;;;;;;5073043;28;20041;-70
2022/05/21 11:05:08;;;;;;;8.98;1.27;;;18.30;99.90;;;;;;5066764;28;20068;-72
2022/05/21 11:08:08;;;;;;;7.63;1.48;;;18.80;99.90;;;;;;5075808;28;20052;-71
2022/05/21 11:10:42;;;;;;;9.00;1.60;;;19.30;99.90;;;;;;5071813;28;20063;-71
2022/05/21 11:13:26;;;;;;;10.35;1.50;;;19.50;99.90;;;;;;5072885;28;20040;-72
2022/05/21 11:16:00;;;;;;;10.30;1.45;;;19.50;99.90;;;;;;5055897;28;20045;-71
2022/05/21 11:18:32;;;;;;;10.30;1.27;;;19.40;99.90;;;;;;5071842;28;20098;-71
2022/05/21 11:21:27;;;;;;;8.93;1.30;;;19.40;99.90;;;;;;5092709;28;20101;-71
2022/05/21 11:24:04;;;;;;;10.18;1.55;;;18.80;99.90;;;;;;5044694;28;20106;-73
2022/05/21 11:26:42;;;;;;;12.77;1.88;;;18.70;99.90;;;;;;5038235;28;20086;-70
2022/05/21 11:29:33;;;;;;;10.50;1.65;;;19.00;99.90;;;;;;5055779;28;20053;-71
2022/05/21 11:37:39;;;;;;;8.35;1.65;;;18.90;99.90;;;;;;5055678;28;20127;-71
2022/05/21 11:40:08;;;;;;;7.65;1.95;;;19.30;99.90;;;;;;5055878;28;20048;-84
2022/05/21 11:42:35;;;;;;;11.98;1.98;;;18.90;99.90;;;;;;5021648;28;20473;-71
2022/05/21 11:45:33;;;;;;;12.23;1.70;;;18.90;99.90;;;;;;5037656;28;20053;-70
2022/05/21 11:48:22;;;;;;;10.80;1.90;;;18.70;99.90;;;;;;5011334;28;20191;-71
2022/05/21 11:51:16;;;;;;;10.85;1.60;;;18.30;99.90;;;;;;5040444;28;20044;-72
2022/05/21 11:53:42;;;;;;;7.45;1.45;;;18.40;99.90;;;;;;5064032;28;20131;-72
2022/05/21 11:56:10;;;;;;;14.70;1.88;;;18.70;99.90;;;;;;5057750;28;20132;-73
2022/05/21 11:58:58;;;;;;;11.82;1.45;;;18.80;99.90;;;;;;5054245;28;20041;-72
2022/05/21 12:01:39;;;;;;;8.50;1.45;;;18.90;99.90;;;;;;5036841;28;20056;-72
2022/05/21 12:04:43;;;;;;;10.32;1.60;;;19.10;99.90;;;;;;5055533;28;20132;-71
2022/05/21 12:07:14;;;;;;;11.60;1.77;;;18.90;99.90;;;;;;5037796;28;20436;-71
2022/05/21 12:10:01;;;;;;;6.25;1.17;;;18.60;99.90;;;;;;5055653;28;20052;-71
2022/05/21 12:12:28;;;;;;;11.02;1.73;;;18.70;99.90;;;;;;5055371;28;20045;-71
2022/05/21 12:15:14;;;;;;;13.70;2.10;;;18.90;99.90;;;;;;5055334;28;20074;-71
2022/05/21 12:18:38;;;;;;;8.40;1.60;;;18.90;99.90;;;;;;5055459;28;20052;-73
2022/05/21 12:21:07;;;;;;;5.68;1.45;;;18.80;99.90;;;;;;5035768;28;20060;-71
2022/05/21 12:23:33;;;;;;;10.43;2.05;;;18.70;99.90;;;;;;5054989;28;20493;-71
2022/05/21 12:26:27;;;;;;;14.00;1.98;;;18.60;99.90;;;;;;5037474;28;20067;-70
2022/05/21 12:28:56;;;;;;;12.05;1.83;;;18.70;99.90;;;;;;5047252;28;20053;-71
2022/05/21 12:31:26;;;;;;;9.45;2.13;;;19.00;99.90;;;;;;5055374;28;20448;-72
2022/05/21 12:34:01;;;;;;;12.80;2.47;;;19.20;99.90;;;;;;5037465;28;20045;-71
2022/05/21 12:36:42;;;;;;;10.13;1.50;;;19.10;99.90;;;;;;5055107;28;20135;-72
2022/05/21 12:39:13;;;;;;;10.13;1.75;;;18.80;99.90;;;;;;5054770;28;20053;-72
2022/05/21 12:41:45;;;;;;;8.00;1.65;;;18.60;99.90;;;;;;5055682;28;20120;-72
2022/05/21 12:44:11;;;;;;;9.48;1.80;;;18.20;99.90;;;;;;5054936;28;20175;-71
2022/05/21 12:46:39;;;;;;;9.90;1.95;;;18.20;99.90;;;;;;5054806;28;20382;-71
2022/05/21 12:49:11;;;;;;;10.85;2.03;;;18.10;99.90;;;;;;5054835;28;20497;-71
2022/05/21 12:51:48;;;;;;;10.38;2.28;;;18.20;99.90;;;;;;5054112;28;20463;-71
2022/05/21 12:54:23;;;;;;;8.52;1.50;;;18.20;99.90;;;;;;5037715;28;20080;-72
2022/05/21 12:56:50;;;;;;;15.40;1.50;;;18.40;99.90;;;;;;5054433;28;20128;-70
2022/05/21 12:59:22;;;;;;;8.85;1.55;;;18.90;99.90;;;;;;5054424;28;20066;-73
2022/05/21 13:02:02;;;;;;;8.60;1.50;;;19.30;99.90;;;;;;5035791;28;20144;-73
2022/05/21 13:04:32;;;;;;;9.30;1.27;;;19.50;99.90;;;;;;5036925;28;20473;-71
2022/05/21 13:07:10;;;;;;;8.57;2.08;;;19.70;99.90;;;;;;5036688;28;20083;-71
2022/05/21 13:09:38;;;;;;;6.63;1.10;;;19.20;99.90;;;;;;5036291;28;20053;-71
2022/05/21 13:12:13;;;;;;;8.10;1.50;;;18.80;99.90;;;;;;5054047;28;20047;-71
2022/05/21 13:14:38;;;;;;;6.30;1.30;;;18.90;99.90;;;;;;5053849;28;20045;-72
2022/05/21 13:17:11;;;;;;;9.65;1.42;;;18.90;99.90;;;;;;5054264;28;20051;-71
2022/05/21 13:19:56;;;;;;;10.95;1.65;;;18.80;99.90;;;;;;5053642;28;20049;-72
2022/05/21 13:22:43;;;;;;;9.82;1.98;;;19.00;99.90;;;;;;5053957;28;20048;-72
2022/05/21 13:25:15;;;;;;;9.82;1.48;;;18.90;99.90;;;;;;5036138;28;20084;-72